This is the latest recevied weather packets stored in our database for station/object DW2488. If no packets are shown the sender has not sent any weather packets the latest 10 day(s).
| Time | Temp. | Humidity | Pressure | Rain* | Wind** | Luminosity | Snow |
|---|---|---|---|---|---|---|---|
| 1777633813 | 13.89° C | 82% | 1027.6 hPa | 0 mm | - | 0 W/m² | - |
| 1777632918 | 14.44° C | 82% | 1027.5 hPa | 0 mm | - | 0 W/m² | - |
| 1777632012 | 14.44° C | 81% | 1027.5 hPa | 0 mm | - | 0 W/m² | - |
| 1777631118 | 14.44° C | 80% | 1027.5 hPa | 0 mm | - | 0 W/m² | - |
| 1777630217 | 15° C | 79% | 1027.4 hPa | 0 mm | - | 0 W/m² | - |
| 1777629286 | 15° C | 79% | 1027.5 hPa | 0 mm | - | 0 W/m² | - |
| 1777628388 | 15.56° C | 77% | 1027.5 hPa | 0 mm | - | 0 W/m² | - |
| 1777627467 | 16.11° C | 76% | 1027.3 hPa | 0 mm | - | 0 W/m² | - |
| 1777626564 | 16.67° C | 75% | 1027.2 hPa | 0 mm | - | 0 W/m² | - |
| 1777625665 | 16.67° C | 75% | 1027 hPa | 0 mm | - | 0 W/m² | - |
| 1777624757 | 17.22° C | 73% | 1027 hPa | 0 mm | - | 0 W/m² | - |
| 1777623857 | 17.78° C | 72% | 1027 hPa | 0 mm | - | 0 W/m² | - |
| 1777622952 | 18.33° C | 71% | 1026.8 hPa | 0 mm | - | 0 W/m² | - |
| 1777622053 | 18.89° C | 70% | 1026.7 hPa | 0 mm | - | 0 W/m² | - |
| 1777621144 | 20° C | 68% | 1026.6 hPa | 0 mm | - | 0 W/m² | - |
| 1777620247 | 20.56° C | 66% | 1026.4 hPa | 0 mm | - | 0 W/m² | - |
| 1777619328 | 21.11° C | 64% | 1026.3 hPa | 0 mm | - | 7 W/m² | - |
| 1777618423 | 22.22° C | 62% | 1026.6 hPa | 0 mm | - | 18 W/m² | - |
| 1777617506 | 22.78° C | 60% | 1026.7 hPa | 0 mm | - | 39 W/m² | - |
| 1777616607 | 22.78° C | 59% | 1026.7 hPa | 0 mm | - | 74 W/m² | - |
| 1777615702 | 22.78° C | 59% | 1026.8 hPa | 0 mm | - | 123 W/m² | - |
| 1777614793 | 23.33° C | 58% | 1026.8 hPa | 0 mm | - | 74 W/m² | - |
| 1777613891 | 23.89° C | 56% | 1026.9 hPa | 0 mm | - | 83 W/m² | - |
| 1777612992 | 24.44° C | 56% | 1026.9 hPa | 0 mm | - | 95 W/m² | - |
| 1777612092 | 23.89° C | 56% | 1026.9 hPa | 0 mm | - | 320 W/m² | - |
* Rain latest hour (hover to see other rain measurements)
** Current wind speed in m/s (hover to see current wind gust speed)